Marcellus, MI (49067)

11:58 AM EDT on May 05, 2015 (GMT -0400)
Farming/Agriculture | | Change Station
CLOSE
Current Station
Personal Weather Station
Location: Decatur, MI
Elevation: 864 ft
Nearby Weather Stations

Elev 864 ft 42.05 °N, 85.91 °W | Updated 57 seconds ago

Rain
Rain
52.3 °F
Feels Like 52.3 °F
N
5.4
Wind Variable Wind from East
Gusts 10.1 mph

Today
High -- | Low -- °F
--% Chance of Precip.
Yesterday
High -- | Low -- °F
Precip. -- in
6:34 AM 8:46 PM
Full, 98% visible
Pressure 30.26 in
Visibility 5.0 miles
Clouds Overcast 700 ft
Dew Point 52 °F
Humidity 100%
Rainfall 0.00 in
Snow Depth Not available.
UV 2 out of 12
Pollen .50 out of 12
Air Quality Not available.
Flu Activity Regional
METAR KHAI 051534Z AUTO 06008G14KT 5SM BR OVC007 12/11 A3026 RMK AO2 T01200110

More Conditions Fewer Conditions

Pressure 30.26 in
Visibility 5.0 miles
Clouds Overcast 700 ft
Dew Point 52 °F
Humidity 100%
Rainfall 0.00 in
Snow Depth Not available.
UV 2 out of 12
Pollen .50 out of 12
Air Quality Not available.
Flu Activity Regional
METAR KHAI 051534Z AUTO 06008G14KT 5SM BR OVC007 12/11 A3026 RMK AO2 T01200110

More Conditions Fewer Conditions

10-Day Weather Forecast

Almanac

Astronomy

May. 05, 2015 Rise Set
Actual Time
Civil Twilight
Nautical Twilight
Astronomical Twilight
Moon
Length of Visible Light
Length of Day
Tomorrow will be .
, % of the Moon is Illuminated

Today's Extremes

State Highs State Lows

Community

WunderPhotos

Upload Photos

1,818,922 photos uploaded!

WunderBlogs® & News

Nearby

Air Quality

  Air Quality AQ Index Pollutant
Not available.

Snow Depth

Station Depth Elevation

Earthquake Activity

City Distance Mag. Time & Date
Minimum magnitude displayed is 2.5.

Coastal Water Temperatures

Place Temperature

Stations

Nearby Weather Stations

Station Location Temp. Windchill Dew Point Humidity Wind Precip. Elev Updated Type